Latest Weather Observations for Creal Reef

IDQ60801

Issued at 5:02 pm EST Saturday 31 January 2015 (issued every 30 minutes, with the page automatically refreshed every 10 minutes)

About weather observations | Map of weather stations | Latest weather observations for QLD | Other Formats
Station Details ID: 200736 Name: CREAL REEF Lat: -20.53 Lon: 150.38 Height: 1.7 m
Data from the previous 72 hours. | See also: Recent months for locations in Queensland
Date/Time
EST
Temp
°C
App
Temp
°C
Dew
Point
Rel
Hum
%
Delta-T
°C
Wind Press
QNH
hPa
Press
MSL
hPa
Rain
since 9 am
mm
Dir
 
Spd
km/h
Gust
km/h
Spd
kts
Gust
kts
31/05:00pm 28.2 - - - - SSE 15 20 8 11 1005.0 - -
31/04:30pm 28.3 - - - - S 19 22 10 12 1005.2 - -
31/04:20pm 28.3 - - - - S 19 - 10 - - 1005.2 -
31/04:00pm 28.2 - - - - S 19 24 10 13 1005.2 - -
31/03:30pm 28.2 - - - - S 19 22 10 12 1005.2 - -
31/03:20pm 28.1 - - - - S 20 - 11 - - 1005.3 -
31/03:00pm 28.3 - - - - S 17 20 9 11 1005.5 - -
31/02:30pm 28.3 - - - - SSE 11 17 6 9 1005.3 - -
31/02:20pm 28.2 - - - - S 15 - 8 - - 1005.6 -
31/02:00pm 28.2 - - - - S 15 20 8 11 1005.9 - -
31/01:30pm 28.0 - - - - S 15 19 8 10 1006.1 - -
31/01:20pm 28.2 - - - - S 17 - 9 - - 1006.2 -
31/01:00pm 28.0 - - - - S 19 20 10 11 1006.3 - -
31/12:30pm 27.9 - - - - SSE 20 26 11 14 1006.5 - -
31/12:20pm 28.0 - - - - S 22 - 12 - - 1006.7 -
31/12:00pm 28.0 - - - - SSE 20 24 11 13 1006.8 - -
31/11:30am 28.0 - - - - S 20 26 11 14 1007.3 - -
31/11:20am 28.0 - - - - S 19 - 10 - - 1007.3 -
31/11:00am 28.1 - - - - SSE 19 22 10 12 1007.6 - -
31/10:30am 28.0 - - - - SE 15 20 8 11 1007.7 - -
31/10:20am 28.0 - - - - SSE 17 - 9 - - 1007.8 -
31/10:00am 28.0 - - - - SSE 17 22 9 12 1007.7 - -
31/09:30am 28.0 - - - - SE 17 20 9 11 1007.8 - -
31/09:20am 27.9 - - - - SE 19 - 10 - - 1007.8 -
31/09:00am 27.9 - - - - ESE 20 24 11 13 1007.6 - -
31/08:30am 27.8 - - - - ESE 20 24 11 13 1007.6 - -
31/08:20am 27.9 - - - - ESE 22 - 12 - - 1007.6 -
31/08:00am 27.7 - - - - ESE 22 28 12 15 1007.5 - -
31/07:30am 27.8 - - - - ESE 24 30 13 16 1007.2 - -
31/07:20am 27.7 - - - - SE 24 - 13 - - 1007.1 -
31/07:00am 27.7 - - - - SE 24 28 13 15 1006.9 - -
31/06:30am 27.5 - - - - SE 22 26 12 14 1006.9 - -
31/06:20am 27.5 - - - - ESE 22 - 12 - - 1006.8 -
31/06:00am 27.4 - - - - SE 22 26 12 14 1006.5 - -
31/05:30am 27.3 - - - - SE 22 28 12 15 1006.1 - -
31/05:20am 27.2 - - - - SE 22 - 12 - - 1006.1 -
31/05:00am 27.2 - - - - SE 22 28 12 15 1005.9 - -
31/04:30am 27.2 - - - - ESE 24 28 13 15 1005.7 - -
31/04:20am 27.3 - - - - ESE 22 - 12 - - 1005.6 -
31/04:00am 27.2 - - - - ESE 24 30 13 16 1005.6 - -
31/03:30am 27.3 - - - - ESE 24 28 13 15 1005.6 - -
31/03:20am 27.2 - - - - ESE 24 - 13 - - 1005.6 -
31/03:00am 27.3 - - - - ESE 24 28 13 15 1005.7 - -
31/02:30am 27.3 - - - - SE 24 30 13 16 1005.7 - -
31/02:20am 27.3 - - - - ESE 24 - 13 - - 1005.7 -
31/02:00am 27.2 - - - - ESE 24 30 13 16 1005.6 - -
31/01:30am 27.3 - - - - ESE 22 26 12 14 1006.0 - -
31/01:20am 27.4 - - - - ESE 22 - 12 - - 1006.1 -
31/01:00am 27.4 - - - - ESE 24 28 13 15 1006.1 - -
31/12:30am 27.5 - - - - ESE 22 26 12 14 1006.3 - -
31/12:20am 27.5 - - - - ESE 24 - 13 - - 1006.5 -
31/12:00am 27.6 - - - - SE 24 28 13 15 1006.6 - -
 
Date/Time
EST
Temp
°C
App
Temp
°C
Dew
Point
Rel
Hum
%
Delta-T
°C
Wind Press
QNH
hPa
Press
MSL
hPa
Rain
since 9 am
mm
Dir
 
Spd
km/h
Gust
km/h
Spd
kts
Gust
kts
30/11:30pm 27.6 - - - - ESE 26 32 14 17 1006.9 - -
30/11:20pm 27.8 - - - - SE 28 - 15 - - 1007.0 -
30/11:00pm 27.6 - - - - ESE 26 30 14 16 1007.2 - -
30/10:30pm 27.4 - - - - ESE 26 30 14 16 1007.2 - -
30/10:20pm 27.4 - - - - ESE 26 - 14 - - 1007.3 -
30/10:00pm 27.5 - - - - ESE 26 30 14 16 1007.3 - -
30/09:30pm 27.6 - - - - ESE 30 33 16 18 1007.2 - -
30/09:20pm 27.6 - - - - ESE 30 - 16 - - 1007.0 -
30/09:00pm 27.8 - - - - ESE 30 33 16 18 1006.8 - -
30/08:30pm 27.6 - - - - ESE 32 35 17 19 1006.6 - -
30/08:20pm 27.8 - - - - ESE 32 - 17 - - 1006.5 -
30/08:00pm 27.8 - - - - ESE 33 37 18 20 1006.3 - -
30/07:30pm 27.7 - - - - ESE 32 37 17 20 1006.1 - -
30/07:20pm 27.6 - - - - ESE 32 - 17 - - 1006.0 -
30/07:00pm 27.9 - - - - ESE 32 37 17 20 1005.9 - -
30/06:30pm 27.7 - - - - SE 33 39 18 21 1005.4 - -
30/06:20pm 27.6 - - - - SE 33 - 18 - - 1005.4 -
30/06:00pm 27.8 - - - - SE 33 39 18 21 1005.2 - -
30/05:30pm 27.9 - - - - SE 30 35 16 19 1004.9 - -
30/05:20pm 27.9 - - - - SE 32 - 17 - - 1004.8 -
30/05:00pm 27.7 - - - - SE 32 37 17 20 1004.6 - -
30/04:30pm 27.7 - - - - SE 28 32 15 17 1004.5 - -
30/04:20pm 27.5 - - - - SSE 22 - 12 - - 1004.6 -
30/04:00pm 27.5 - - - - SE 26 30 14 16 1004.5 - -
30/03:30pm 27.2 - - - - ESE 22 28 12 15 1004.5 - -
30/03:20pm 27.5 - - - - SE 22 - 12 - - 1004.7 -
30/03:00pm 27.0 - - - - ESE 30 37 16 20 1004.7 - -
30/02:30pm 27.1 - - - - SSW 19 22 10 12 1005.0 - -
30/02:20pm 27.0 - - - - SSW 20 - 11 - - 1005.0 -
30/02:00pm 26.7 - - - - SSW 22 28 12 15 1005.2 - -
30/01:30pm 26.4 - - - - SW 26 32 14 17 1005.6 - -
30/01:20pm 26.2 - - - - SSW 32 - 17 - - 1005.7 -
30/01:07pm 25.5 - - - - SSW 37 41 20 22 1005.7 - -
30/01:00pm 26.6 - - - - S 33 39 18 21 1005.7 - -
30/12:30pm 28.0 - - - - SE 20 26 11 14 1006.0 - -
30/12:20pm 28.1 - - - - SE 20 - 11 - - 1006.1 -
30/12:00pm 28.0 - - - - SE 20 26 11 14 1006.3 - -
30/11:30am 27.9 - - - - SE 19 22 10 12 1006.6 - -
30/11:20am 27.8 - - - - SE 20 - 11 - - 1006.7 -
30/11:00am 27.8 - - - - SE 20 22 11 12 1007.0 - -
30/10:30am 27.6 - - - - SE 20 24 11 13 1006.9 - -
30/10:20am 27.7 - - - - ESE 19 - 10 - - 1006.8 -
30/10:00am 27.6 - - - - ESE 20 24 11 13 1006.8 - -
30/09:30am 27.7 - - - - ESE 20 24 11 13 1006.8 - -
30/09:20am 27.7 - - - - SE 22 - 12 - - 1006.9 -
30/09:00am 27.7 - - - - ESE 20 24 11 13 1006.8 - -
30/08:30am 27.7 - - - - SE 20 26 11 14 1006.4 - -
30/08:20am 27.9 - - - - SSE 19 - 10 - - 1006.4 -
30/08:00am 27.6 - - - - SE 24 30 13 16 1006.2 - -
30/07:30am 27.3 - - - - SE 24 28 13 15 1006.0 - -
30/07:20am 27.3 - - - - SE 24 - 13 - - 1006.0 -
30/07:00am 27.3 - - - - SE 24 28 13 15 1005.7 - -
30/06:30am 27.1 - - - - SE 24 28 13 15 1005.5 - -
30/06:20am 27.0 - - - - ESE 26 - 14 - - 1005.4 -
30/06:00am 27.1 - - - - ESE 26 32 14 17 1005.2 - -
30/05:30am 26.9 - - - - ESE 30 33 16 18 1004.8 - -
30/05:20am 27.0 - - - - ESE 28 - 15 - - 1004.6 -
30/05:00am 27.1 - - - - ESE 30 33 16 18 1004.5 - -
30/04:30am 26.8 - - - - ESE 32 35 17 19 1004.1 - -
30/04:20am 26.9 - - - - SE 30 - 16 - - 1004.1 -
30/04:00am 26.8 - - - - SE 33 37 18 20 1004.0 - -
30/03:30am 26.9 - - - - SE 32 35 17 19 1004.0 - -
30/03:20am 26.9 - - - - SE 32 - 17 - - 1004.0 -
30/03:00am 26.8 - - - - SE 30 35 16 19 1004.1 - -
30/02:30am 26.7 - - - - ESE 33 37 18 20 1004.3 - -
30/02:20am 26.7 - - - - ESE 30 - 16 - - 1004.5 -
30/02:00am 26.7 - - - - ESE 33 37 18 20 1004.8 - -
30/01:30am 26.9 - - - - ESE 33 37 18 20 1005.3 - -
30/01:20am 26.9 - - - - SE 33 - 18 - - 1005.4 -
30/01:00am 27.0 - - - - ESE 33 39 18 21 1005.7 - -
30/12:30am 26.9 - - - - ESE 35 41 19 22 1005.8 - -
30/12:20am 27.0 - - - - SE 39 - 21 - - 1006.0 -
30/12:00am 27.0 - - - - SE 35 43 19 23 1006.0 - -
 
Date/Time
EST
Temp
°C
App
Temp
°C
Dew
Point
Rel
Hum
%
Delta-T
°C
Wind Press
QNH
hPa
Press
MSL
hPa
Rain
since 9 am
mm
Dir
 
Spd
km/h
Gust
km/h
Spd
kts
Gust
kts
29/11:30pm 27.0 - - - - SE 37 41 20 22 1006.4 - -
29/11:20pm 27.3 - - - - SE 39 - 21 - - 1006.3 -
29/11:00pm 27.4 - - - - SE 37 44 20 24 1006.5 - -
29/10:30pm 27.4 - - - - SE 35 41 19 22 1006.4 - -
29/10:20pm 27.4 - - - - SE 35 - 19 - - 1006.4 -
29/10:00pm 27.4 - - - - SE 33 41 18 22 1006.3 - -
29/09:30pm 27.5 - - - - SE 35 39 19 21 1006.1 - -
29/09:20pm 27.5 - - - - SE 32 - 17 - - 1006.2 -
29/09:00pm 27.5 - - - - SE 33 39 18 21 1006.1 - -
29/08:30pm 27.4 - - - - SE 35 39 19 21 1005.9 - -
29/08:20pm 27.3 - - - - SE 33 - 18 - - 1005.7 -
29/08:00pm 27.2 - - - - SE 33 39 18 21 1005.5 - -
29/07:30pm 27.1 - - - - SE 35 39 19 21 1005.2 - -
29/07:20pm 27.2 - - - - SE 32 - 17 - - 1005.1 -
29/07:00pm 27.2 - - - - SE 35 41 19 22 1005.1 - -
29/06:30pm 27.7 - - - - SE 26 32 14 17 1004.8 - -
29/06:20pm 27.6 - - - - SSE 26 - 14 - - 1004.5 -
29/06:00pm 27.4 - - - - SE 32 37 17 20 1004.0 - -
29/05:30pm 27.3 - - - - SSE 30 37 16 20 1003.7 - -
29/05:20pm 27.4 - - - - SSE 30 - 16 - - 1003.6 -
29/05:00pm 28.2 - - - - SSE 28 32 15 17 1003.4 - -
29/04:30pm 28.4 - - - - SSE 26 32 14 17 1003.1 - -
29/04:20pm 28.4 - - - - SSE 22 - 12 - - 1003.0 -
29/04:00pm 28.5 - - - - SSE 22 28 12 15 1002.7 - -
29/03:30pm 28.4 - - - - SSE 19 22 10 12 1002.7 - -
29/03:20pm 28.3 - - - - SSE 19 - 10 - - 1002.7 -
29/03:00pm 28.4 - - - - SSE 17 20 9 11 1003.0 - -
29/02:30pm 28.3 - - - - SE 19 22 10 12 1003.2 - -
29/02:20pm 28.3 - - - - SE 19 - 10 - - 1003.2 -
29/02:00pm 28.2 - - - - SSE 17 22 9 12 1003.4 - -
29/01:30pm 28.2 - - - - SSE 19 20 10 11 1003.6 - -
29/01:20pm 28.0 - - - - SE 19 - 10 - - 1003.6 -
29/01:00pm 28.0 - - - - SE 20 24 11 13 1003.7 - -
29/12:30pm 27.9 - - - - SSE 22 26 12 14 1003.9 - -
29/12:20pm 28.1 - - - - SSE 20 - 11 - - 1003.9 -
29/12:00pm 27.8 - - - - SE 22 26 12 14 1004.0 - -
29/11:30am 27.9 - - - - SE 22 26 12 14 1004.2 - -
29/11:20am 27.7 - - - - ESE 22 - 12 - - 1004.3 -
29/11:00am 27.9 - - - - ESE 22 26 12 14 1004.3 - -
29/10:30am 27.9 - - - - ESE 20 22 11 12 1004.4 - -
29/10:20am 27.7 - - - - ESE 19 - 10 - - 1004.4 -
29/10:00am 27.8 - - - - ESE 20 24 11 13 1004.5 - -
29/09:30am 27.8 - - - - ESE 19 20 10 11 1004.4 - -
29/09:20am 27.7 - - - - ESE 17 - 9 - - 1004.3 -
29/09:00am 27.8 - - - - ESE 17 20 9 11 1004.2 - -
29/08:30am 27.7 - - - - ESE 20 22 11 12 1004.1 - -
29/08:20am 27.8 - - - - ESE 20 - 11 - - 1004.1 -
29/08:00am 27.8 - - - - ESE 22 26 12 14 1003.8 - -
29/07:30am 27.7 - - - - ESE 22 26 12 14 1003.8 - -
29/07:20am 27.6 - - - - ESE 22 - 12 - - 1003.8 -
29/07:00am 27.5 - - - - ESE 20 24 11 13 1003.8 - -
29/06:30am 27.5 - - - - E 22 26 12 14 1003.3 - -
29/06:20am 27.3 - - - - ESE 20 - 11 - - 1003.3 -
29/06:00am 27.4 - - - - E 26 30 14 16 1002.8 - -
29/05:30am 27.3 - - - - E 24 28 13 15 1002.3 - -
29/05:20am 27.3 - - - - ESE 26 - 14 - - 1002.2 -
29/05:00am 27.2 - - - - ESE 26 32 14 17 1001.9 - -
29/04:30am 27.3 - - - - ESE 28 33 15 18 1001.7 - -
29/04:20am 27.3 - - - - ESE 28 - 15 - - 1001.7 -
29/04:00am 27.5 - - - - ESE 26 32 14 17 1001.8 - -
29/03:30am 27.3 - - - - ESE 26 30 14 16 1001.6 - -
29/03:20am 27.3 - - - - ESE 26 - 14 - - 1001.6 -
29/03:00am 27.3 - - - - E 33 39 18 21 1001.5 - -
29/02:30am 27.1 - - - - E 30 35 16 19 1001.3 - -
29/02:20am 27.2 - - - - E 28 - 15 - - 1001.5 -
29/02:00am 27.3 - - - - ESE 26 30 14 16 1001.8 - -
29/01:30am 27.5 - - - - ESE 32 35 17 19 1002.2 - -
29/01:20am 27.5 - - - - ESE 33 - 18 - - 1002.1 -
29/01:00am 27.5 - - - - SE 32 35 17 19 1002.4 - -
29/12:30am 27.4 - - - - ESE 33 35 18 19 1002.9 - -
29/12:20am 27.4 - - - - SE 33 - 18 - - 1002.7 -
29/12:00am 27.3 - - - - SE 35 41 19 22 1002.6 - -
 
Date/Time
EST
Temp
°C
App
Temp
°C
Dew
Point
Rel
Hum
%
Delta-T
°C
Wind Press
QNH
hPa
Press
MSL
hPa
Rain
since 9 am
mm
Dir
 
Spd
km/h
Gust
km/h
Spd
kts
Gust
kts
28/11:30pm 27.6 - - - - ESE 35 39 19 21 1003.2 - -
28/11:20pm 27.7 - - - - ESE 28 - 15 - - 1003.3 -
28/11:00pm 28.1 - - - - ESE 24 28 13 15 1003.2 - -
28/10:30pm 28.0 - - - - E 17 20 9 11 1003.2 - -
28/10:20pm 27.5 - - - - E 20 - 11 - - 1003.1 -
28/10:00pm 27.7 - - - - E 24 30 13 16 1003.0 - -
28/09:30pm 28.2 - - - - E 13 28 7 15 1002.7 - -
28/09:20pm 28.5 - - - - ENE 13 - 7 - - 1002.6 -
28/09:00pm 28.5 - - - - ESE 13 19 7 10 1002.5 - -
28/08:30pm 28.6 - - - - CALM 0 0 0 0 1002.3 - -
28/08:20pm 28.6 - - - - CALM 0 - 0 - - 1002.4 -
28/08:00pm 28.7 - - - - SE 7 9 4 5 1002.1 - -
28/07:30pm 28.7 - - - - ESE 9 9 5 5 1001.4 - -
28/07:20pm 28.7 - - - - SE 9 - 5 - - 1001.4 -
28/07:00pm 28.7 - - - - SSE 9 11 5 6 1001.1 - -
28/06:30pm 28.7 - - - - SE 11 13 6 7 1000.9 - -
28/06:20pm 28.8 - - - - SSE 11 - 6 - - 1000.8 -
28/06:00pm 28.8 - - - - ESE 11 15 6 8 1000.5 - -
28/05:30pm 28.8 - - - - SE 6 9 3 5 1000.0 - -
28/05:20pm 28.8 - - - - SE 6 - 3 - - 999.9 -

Other Formats:

Comma delimited format used in spreadsheet applications
http://www.bom.gov.au/fwo/IDQ60801/IDQ60801.94371.axf

JavaScript Object Notation format (JSON) in row-major order
http://www.bom.gov.au/fwo/IDQ60801/IDQ60801.94371.json